sensor_id;sensor_type;location;lat;lon;timestamp;temperature;humidity
38973;DHT22;25333;50.762;4.470;2024-01-06T07:48:03;5.90;99.90
38973;DHT22;25333;50.762;4.470;2024-01-06T07:50:29;5.90;99.90
38973;DHT22;25333;50.762;4.470;2024-01-06T07:53:31;6.00;99.90
38973;DHT22;25333;50.762;4.470;2024-01-06T08:02:37;5.80;99.90
38973;DHT22;25333;50.762;4.470;2024-01-06T08:05:28;5.70;99.90
38973;DHT22;25333;50.762;4.470;2024-01-06T08:14:04;5.80;99.90
38973;DHT22;25333;50.762;4.470;2024-01-06T08:17:48;5.80;99.90
38973;DHT22;25333;50.762;4.470;2024-01-06T08:20:55;5.80;99.90
38973;DHT22;25333;50.762;4.470;2024-01-06T08:26:40;5.80;99.90
38973;DHT22;25333;50.762;4.470;2024-01-06T09:21:23;5.80;99.90
38973;DHT22;25333;50.762;4.470;2024-01-06T09:24:30;5.70;99.90
38973;DHT22;25333;50.762;4.470;2024-01-06T10:23:43;5.70;99.90
38973;DHT22;25333;50.762;4.470;2024-01-06T10:26:33;5.60;99.90
38973;DHT22;25333;50.762;4.470;2024-01-06T10:29:13;5.50;99.90
38973;DHT22;25333;50.762;4.470;2024-01-06T10:35:16;5.40;99.90
38973;DHT22;25333;50.762;4.470;2024-01-06T10:37:47;5.40;99.90
38973;DHT22;25333;50.762;4.470;2024-01-06T10:58:25;5.60;99.90
38973;DHT22;25333;50.762;4.470;2024-01-06T11:01:52;5.60;99.90
38973;DHT22;25333;50.762;4.470;2024-01-06T11:38:00;5.40;99.90
38973;DHT22;25333;50.762;4.470;2024-01-06T12:28:20;5.20;99.90
38973;DHT22;25333;50.762;4.470;2024-01-06T12:30:46;5.10;99.90
38973;DHT22;25333;50.762;4.470;2024-01-06T12:33:13;5.00;99.90
38973;DHT22;25333;50.762;4.470;2024-01-06T12:35:40;5.00;99.90
38973;DHT22;25333;50.762;4.470;2024-01-06T12:38:08;5.00;99.90
38973;DHT22;25333;50.762;4.470;2024-01-06T12:40:36;5.00;99.90
38973;DHT22;25333;50.762;4.470;2024-01-06T12:43:04;5.00;99.90
38973;DHT22;25333;50.762;4.470;2024-01-06T12:45:29;5.00;99.90
38973;DHT22;25333;50.762;4.470;2024-01-06T12:47:55;5.10;99.90
38973;DHT22;25333;50.762;4.470;2024-01-06T12:50:21;5.00;99.90
38973;DHT22;25333;50.762;4.470;2024-01-06T12:52:46;5.10;99.90
38973;DHT22;25333;50.762;4.470;2024-01-06T12:55:12;5.20;99.90
38973;DHT22;25333;50.762;4.470;2024-01-06T12:57:38;5.10;99.90
38973;DHT22;25333;50.762;4.470;2024-01-06T13:00:04;5.10;99.90
38973;DHT22;25333;50.762;4.470;2024-01-06T13:02:36;5.10;99.90
38973;DHT22;25333;50.762;4.470;2024-01-06T13:05:02;5.00;99.90
38973;DHT22;25333;50.762;4.470;2024-01-06T13:07:28;4.90;99.90
38973;DHT22;25333;50.762;4.470;2024-01-06T13:09:54;5.00;99.90
38973;DHT22;25333;50.762;4.470;2024-01-06T13:12:20;4.90;99.90
38973;DHT22;25333;50.762;4.470;2024-01-06T13:14:46;5.00;99.90
38973;DHT22;25333;50.762;4.470;2024-01-06T13:17:15;5.10;99.90
38973;DHT22;25333;50.762;4.470;2024-01-06T13:19:40;5.10;99.90
38973;DHT22;25333;50.762;4.470;2024-01-06T13:22:06;5.00;99.90
38973;DHT22;25333;50.762;4.470;2024-01-06T13:24:31;5.00;99.90
38973;DHT22;25333;50.762;4.470;2024-01-06T13:26:57;5.00;99.90
38973;DHT22;25333;50.762;4.470;2024-01-06T13:29:24;5.10;99.90
38973;DHT22;25333;50.762;4.470;2024-01-06T13:31:50;5.10;99.90
38973;DHT22;25333;50.762;4.470;2024-01-06T13:34:16;5.10;99.90
38973;DHT22;25333;50.762;4.470;2024-01-06T13:36:41;4.90;99.90
38973;DHT22;25333;50.762;4.470;2024-01-06T13:39:07;5.00;99.90
38973;DHT22;25333;50.762;4.470;2024-01-06T13:41:33;4.90;99.90
38973;DHT22;25333;50.762;4.470;2024-01-06T13:43:58;4.80;99.90
38973;DHT22;25333;50.762;4.470;2024-01-06T13:46:24;4.90;99.90
38973;DHT22;25333;50.762;4.470;2024-01-06T13:48:50;4.90;99.90
38973;DHT22;25333;50.762;4.470;2024-01-06T13:51:16;4.90;99.90
38973;DHT22;25333;50.762;4.470;2024-01-06T13:53:42;5.00;99.90
38973;DHT22;25333;50.762;4.470;2024-01-06T13:56:07;5.00;99.90
38973;DHT22;25333;50.762;4.470;2024-01-06T13:58:33;5.00;99.90
38973;DHT22;25333;50.762;4.470;2024-01-06T14:01:01;5.00;99.90
38973;DHT22;25333;50.762;4.470;2024-01-06T14:03:27;5.00;99.90
38973;DHT22;25333;50.762;4.470;2024-01-06T14:05:53;5.00;99.90
38973;DHT22;25333;50.762;4.470;2024-01-06T14:08:19;4.80;99.90
38973;DHT22;25333;50.762;4.470;2024-01-06T14:10:45;4.80;99.90
38973;DHT22;25333;50.762;4.470;2024-01-06T14:13:11;4.80;99.90
38973;DHT22;25333;50.762;4.470;2024-01-06T14:15:36;4.80;99.90
38973;DHT22;25333;50.762;4.470;2024-01-06T14:18:03;4.80;99.90
38973;DHT22;25333;50.762;4.470;2024-01-06T14:20:29;4.80;99.90
38973;DHT22;25333;50.762;4.470;2024-01-06T14:22:57;4.80;99.90
38973;DHT22;25333;50.762;4.470;2024-01-06T14:25:22;4.80;99.90
38973;DHT22;25333;50.762;4.470;2024-01-06T14:27:48;4.70;99.90
38973;DHT22;25333;50.762;4.470;2024-01-06T14:30:14;4.80;99.90
38973;DHT22;25333;50.762;4.470;2024-01-06T14:32:39;4.80;99.90
38973;DHT22;25333;50.762;4.470;2024-01-06T14:35:06;4.80;99.90
38973;DHT22;25333;50.762;4.470;2024-01-06T14:37:35;4.80;99.90
38973;DHT22;25333;50.762;4.470;2024-01-06T14:40:01;4.80;99.90
38973;DHT22;25333;50.762;4.470;2024-01-06T14:42:31;4.90;99.90
38973;DHT22;25333;50.762;4.470;2024-01-06T14:44:57;4.90;99.90
38973;DHT22;25333;50.762;4.470;2024-01-06T14:47:23;4.90;99.90
38973;DHT22;25333;50.762;4.470;2024-01-06T14:49:49;4.90;99.90
38973;DHT22;25333;50.762;4.470;2024-01-06T14:52:14;4.80;99.90
38973;DHT22;25333;50.762;4.470;2024-01-06T14:54:40;4.80;99.90
38973;DHT22;25333;50.762;4.470;2024-01-06T14:57:05;4.90;99.90
38973;DHT22;25333;50.762;4.470;2024-01-06T14:59:33;4.90;99.90
38973;DHT22;25333;50.762;4.470;2024-01-06T15:02:02;5.00;99.90
38973;DHT22;25333;50.762;4.470;2024-01-06T15:04:28;5.00;99.90
38973;DHT22;25333;50.762;4.470;2024-01-06T15:06:54;5.00;99.90
38973;DHT22;25333;50.762;4.470;2024-01-06T15:09:19;5.00;99.90
38973;DHT22;25333;50.762;4.470;2024-01-06T15:11:46;4.90;99.90
38973;DHT22;25333;50.762;4.470;2024-01-06T15:14:11;4.90;99.90
38973;DHT22;25333;50.762;4.470;2024-01-06T15:16:37;4.90;99.90
38973;DHT22;25333;50.762;4.470;2024-01-06T15:19:03;4.90;99.90
38973;DHT22;25333;50.762;4.470;2024-01-06T15:21:29;4.90;99.90
38973;DHT22;25333;50.762;4.470;2024-01-06T15:23:59;4.90;99.90
38973;DHT22;25333;50.762;4.470;2024-01-06T15:26:25;4.80;99.90
38973;DHT22;25333;50.762;4.470;2024-01-06T15:28:51;4.60;99.90
38973;DHT22;25333;50.762;4.470;2024-01-06T15:31:17;4.50;99.90
38973;DHT22;25333;50.762;4.470;2024-01-06T15:33:43;4.60;99.90
38973;DHT22;25333;50.762;4.470;2024-01-06T15:36:09;4.60;99.90
38973;DHT22;25333;50.762;4.470;2024-01-06T15:38:34;4.70;99.90
38973;DHT22;25333;50.762;4.470;2024-01-06T15:41:00;4.70;99.90
38973;DHT22;25333;50.762;4.470;2024-01-06T15:43:26;4.60;99.90
38973;DHT22;25333;50.762;4.470;2024-01-06T15:45:52;4.70;99.90
38973;DHT22;25333;50.762;4.470;2024-01-06T15:48:19;4.80;99.90
38973;DHT22;25333;50.762;4.470;2024-01-06T15:50:45;4.80;99.90
38973;DHT22;25333;50.762;4.470;2024-01-06T15:53:11;4.80;99.90
38973;DHT22;25333;50.762;4.470;2024-01-06T15:55:40;4.80;99.90
38973;DHT22;25333;50.762;4.470;2024-01-06T15:58:07;4.70;99.90
38973;DHT22;25333;50.762;4.470;2024-01-06T16:00:32;4.60;99.90
38973;DHT22;25333;50.762;4.470;2024-01-06T16:02:59;4.60;99.90
38973;DHT22;25333;50.762;4.470;2024-01-06T16:05:25;4.60;99.90
38973;DHT22;25333;50.762;4.470;2024-01-06T16:07:51;4.60;99.90
38973;DHT22;25333;50.762;4.470;2024-01-06T16:10:20;4.60;99.90
38973;DHT22;25333;50.762;4.470;2024-01-06T16:13:05;4.60;99.90
38973;DHT22;25333;50.762;4.470;2024-01-06T16:15:31;4.50;99.90
38973;DHT22;25333;50.762;4.470;2024-01-06T16:17:57;4.40;99.90
38973;DHT22;25333;50.762;4.470;2024-01-06T16:20:22;4.50;99.90
38973;DHT22;25333;50.762;4.470;2024-01-06T16:22:48;4.60;99.90
38973;DHT22;25333;50.762;4.470;2024-01-06T16:25:16;4.50;99.90
38973;DHT22;25333;50.762;4.470;2024-01-06T16:27:42;4.50;99.90
38973;DHT22;25333;50.762;4.470;2024-01-06T16:30:08;4.40;99.90
38973;DHT22;25333;50.762;4.470;2024-01-06T16:32:34;4.40;99.90
38973;DHT22;25333;50.762;4.470;2024-01-06T16:35:00;4.40;99.90
38973;DHT22;25333;50.762;4.470;2024-01-06T16:37:26;4.40;99.90
38973;DHT22;25333;50.762;4.470;2024-01-06T16:39:52;4.40;99.90
38973;DHT22;25333;50.762;4.470;2024-01-06T16:42:18;4.30;99.90
38973;DHT22;25333;50.762;4.470;2024-01-06T16:44:45;4.30;99.90
38973;DHT22;25333;50.762;4.470;2024-01-06T16:47:11;4.30;99.90
38973;DHT22;25333;50.762;4.470;2024-01-06T16:49:36;4.30;99.90
38973;DHT22;25333;50.762;4.470;2024-01-06T16:52:02;4.40;99.90
38973;DHT22;25333;50.762;4.470;2024-01-06T16:54:28;4.40;99.90
38973;DHT22;25333;50.762;4.470;2024-01-06T16:56:54;4.40;99.90
38973;DHT22;25333;50.762;4.470;2024-01-06T16:59:20;4.40;99.90
38973;DHT22;25333;50.762;4.470;2024-01-06T17:01:46;4.40;99.90
38973;DHT22;25333;50.762;4.470;2024-01-06T17:04:12;4.40;99.90
38973;DHT22;25333;50.762;4.470;2024-01-06T17:06:38;4.40;99.90
38973;DHT22;25333;50.762;4.470;2024-01-06T17:09:04;4.50;99.90
38973;DHT22;25333;50.762;4.470;2024-01-06T17:11:29;4.50;99.90
38973;DHT22;25333;50.762;4.470;2024-01-06T17:13:55;4.50;99.90
38973;DHT22;25333;50.762;4.470;2024-01-06T17:16:20;4.40;99.90
38973;DHT22;25333;50.762;4.470;2024-01-06T17:18:46;4.40;99.90
38973;DHT22;25333;50.762;4.470;2024-01-06T17:21:12;4.50;99.90
38973;DHT22;25333;50.762;4.470;2024-01-06T17:23:41;4.50;99.90
38973;DHT22;25333;50.762;4.470;2024-01-06T17:26:06;4.50;99.90
38973;DHT22;25333;50.762;4.470;2024-01-06T17:28:32;4.40;99.90
38973;DHT22;25333;50.762;4.470;2024-01-06T17:31:00;4.50;99.90
38973;DHT22;25333;50.762;4.470;2024-01-06T17:33:26;4.40;99.90
38973;DHT22;25333;50.762;4.470;2024-01-06T17:35:53;4.50;99.90
38973;DHT22;25333;50.762;4.470;2024-01-06T17:38:20;4.50;99.90
38973;DHT22;25333;50.762;4.470;2024-01-06T17:40:45;4.50;99.90
38973;DHT22;25333;50.762;4.470;2024-01-06T17:43:13;4.40;99.90
38973;DHT22;25333;50.762;4.470;2024-01-06T17:45:38;4.30;99.90
38973;DHT22;25333;50.762;4.470;2024-01-06T17:48:05;4.40;99.90
38973;DHT22;25333;50.762;4.470;2024-01-06T17:50:32;4.50;99.90
38973;DHT22;25333;50.762;4.470;2024-01-06T17:52:58;4.40;99.90
38973;DHT22;25333;50.762;4.470;2024-01-06T17:55:24;4.30;99.90
38973;DHT22;25333;50.762;4.470;2024-01-06T17:57:51;4.30;99.90
38973;DHT22;25333;50.762;4.470;2024-01-06T18:00:18;4.30;99.90
38973;DHT22;25333;50.762;4.470;2024-01-06T18:02:43;4.30;99.90
38973;DHT22;25333;50.762;4.470;2024-01-06T18:05:12;4.30;99.90
38973;DHT22;25333;50.762;4.470;2024-01-06T18:07:54;4.20;99.90
38973;DHT22;25333;50.762;4.470;2024-01-06T18:10:20;4.30;99.90
38973;DHT22;25333;50.762;4.470;2024-01-06T18:12:45;4.30;99.90
38973;DHT22;25333;50.762;4.470;2024-01-06T18:15:13;4.30;99.90
38973;DHT22;25333;50.762;4.470;2024-01-06T18:17:38;4.30;99.90
38973;DHT22;25333;50.762;4.470;2024-01-06T18:20:07;4.30;99.90
38973;DHT22;25333;50.762;4.470;2024-01-06T18:22:36;4.20;99.90
38973;DHT22;25333;50.762;4.470;2024-01-06T18:25:03;4.30;99.90
38973;DHT22;25333;50.762;4.470;2024-01-06T18:27:30;4.30;99.90
38973;DHT22;25333;50.762;4.470;2024-01-06T18:29:59;4.20;99.90
38973;DHT22;25333;50.762;4.470;2024-01-06T18:32:25;4.30;99.90
38973;DHT22;25333;50.762;4.470;2024-01-06T18:34:52;4.30;99.90
38973;DHT22;25333;50.762;4.470;2024-01-06T18:37:17;4.30;99.90
38973;DHT22;25333;50.762;4.470;2024-01-06T18:39:46;4.30;99.90
38973;DHT22;25333;50.762;4.470;2024-01-06T18:42:12;4.30;99.90
38973;DHT22;25333;50.762;4.470;2024-01-06T18:44:44;4.20;99.90
38973;DHT22;25333;50.762;4.470;2024-01-06T18:47:13;4.20;99.90
